createdAt,value
2019-04-16T00:02:05.530Z,11.63
2019-04-16T00:04:56.704Z,11.30
2019-04-16T00:07:39.433Z,10.70
2019-04-16T00:10:34.250Z,10.47
2019-04-16T00:13:11.913Z,11.90
2019-04-16T00:15:42.104Z,10.60
2019-04-16T00:18:12.045Z,10.83
2019-04-16T00:20:55.271Z,11.27
2019-04-16T00:23:36.370Z,10.07
2019-04-16T00:26:06.424Z,9.93
2019-04-16T00:28:36.275Z,10.03
2019-04-16T00:31:07.277Z,9.73
2019-04-16T00:33:39.375Z,10.83
2019-04-16T00:36:08.663Z,11.43
2019-04-16T00:38:41.017Z,11.40
2019-04-16T00:41:10.033Z,10.50
2019-04-16T00:43:39.921Z,10.37
2019-04-16T00:46:11.619Z,11.13
2019-04-16T00:48:41.334Z,10.90
2019-04-16T00:51:11.163Z,10.50
2019-04-16T00:53:40.984Z,11.07
2019-04-16T00:56:15.881Z,11.67
2019-04-16T00:58:44.954Z,11.50
2019-04-16T01:01:17.640Z,11.17
2019-04-16T01:03:47.482Z,11.13
2019-04-16T01:06:17.446Z,10.90
2019-04-16T01:08:54.420Z,10.73
2019-04-16T01:11:18.991Z,10.50
2019-04-16T01:13:48.910Z,10.73
2019-04-16T01:16:18.722Z,10.50
2019-04-16T01:18:48.750Z,11.77
2019-04-16T01:21:18.580Z,11.70
2019-04-16T01:23:49.333Z,10.53
2019-04-16T01:26:19.414Z,11.17
2019-04-16T01:29:23.153Z,11.20
2019-04-16T01:32:19.083Z,10.60
2019-04-16T01:35:18.642Z,11.50
2019-04-16T01:38:03.266Z,10.60
2019-04-16T01:40:40.095Z,10.53
2019-04-16T01:43:09.905Z,10.07
2019-04-16T01:45:39.820Z,10.47
2019-04-16T01:48:09.671Z,11.20
2019-04-16T01:50:43.530Z,9.93
2019-04-16T01:53:11.179Z,10.10
2019-04-16T01:55:42.605Z,10.67
2019-04-16T01:58:12.599Z,10.23
2019-04-16T02:00:42.805Z,10.50
2019-04-16T02:03:17.561Z,10.87
2019-04-16T02:05:44.280Z,10.33
2019-04-16T02:08:14.199Z,10.40
2019-04-16T02:10:44.093Z,10.40
2019-04-16T02:13:14.957Z,9.67
2019-04-16T02:15:45.544Z,10.03
2019-04-16T02:18:15.347Z,9.83
2019-04-16T02:20:45.158Z,10.30
2019-04-16T02:23:16.790Z,9.47
2019-04-16T02:25:48.473Z,9.77
2019-04-16T02:28:21.385Z,10.00
2019-04-16T02:30:49.746Z,10.63
2019-04-16T02:33:20.683Z,9.93
2019-04-16T02:35:50.560Z,9.87
2019-04-16T02:38:20.408Z,10.13
2019-04-16T02:40:52.793Z,9.57
2019-04-16T02:43:21.813Z,9.77
2019-04-16T02:45:56.744Z,9.67
2019-04-16T02:48:24.339Z,9.77
2019-04-16T02:51:05.458Z,9.83
2019-04-16T02:53:58.696Z,10.10
2019-04-16T02:56:44.567Z,10.80
2019-04-16T02:59:18.237Z,10.13
2019-04-16T03:01:58.817Z,10.00
2019-04-16T03:04:33.276Z,10.13
2019-04-16T03:07:04.238Z,10.13
2019-04-16T03:09:34.362Z,9.67
2019-04-16T03:12:04.306Z,10.20
2019-04-16T03:14:35.108Z,9.93
2019-04-16T03:17:12.659Z,9.10
2019-04-16T03:19:43.481Z,10.00
2019-04-16T03:22:13.311Z,10.20
2019-04-16T03:24:43.117Z,9.60
2019-04-16T03:27:13.029Z,9.67
2019-04-16T03:29:42.912Z,9.87
2019-04-16T03:32:14.997Z,9.73
2019-04-16T03:34:44.366Z,9.53
2019-04-16T03:37:14.314Z,9.70
2019-04-16T03:39:44.999Z,9.53
2019-04-16T03:42:14.936Z,10.40
2019-04-16T03:44:44.799Z,9.47
2019-04-16T03:47:15.714Z,10.03
2019-04-16T03:49:46.174Z,10.10
2019-04-16T03:52:16.004Z,9.67
2019-04-16T03:54:45.839Z,9.67
2019-04-16T03:57:15.679Z,10.17
2019-04-16T03:59:45.575Z,10.80
2019-04-16T04:02:19.165Z,9.77
2019-04-16T04:04:46.950Z,10.30
2019-04-16T04:07:16.839Z,10.07
2019-04-16T04:09:46.631Z,11.00
2019-04-16T04:12:16.573Z,9.43
2019-04-16T04:14:46.407Z,10.40
2019-04-16T04:17:16.384Z,10.30
2019-04-16T04:19:46.897Z,10.00
2019-04-16T04:22:17.817Z,10.17
2019-04-16T04:24:48.731Z,9.93
2019-04-16T04:27:19.409Z,10.03
2019-04-16T04:29:49.806Z,10.20
2019-04-16T04:32:19.699Z,10.00
2019-04-16T04:34:49.634Z,10.43
2019-04-16T04:37:19.730Z,10.30
2019-04-16T04:39:49.584Z,9.90
2019-04-16T04:42:19.767Z,9.80
2019-04-16T04:44:49.886Z,10.30
2019-04-16T04:47:20.256Z,10.30
2019-04-16T04:49:50.334Z,10.03
2019-04-16T04:52:20.169Z,10.27
2019-04-16T04:54:51.346Z,13.17
2019-04-16T04:57:21.742Z,13.40
2019-04-16T04:59:51.571Z,12.93
2019-04-16T05:02:21.600Z,24.07
2019-04-16T05:05:07.418Z,18.53
2019-04-16T05:07:37.275Z,21.63
2019-04-16T05:10:08.452Z,13.23
2019-04-16T05:12:39.962Z,13.90
2019-04-16T05:15:09.990Z,14.87
2019-04-16T05:17:39.875Z,17.87
2019-04-16T05:20:09.752Z,14.90
2019-04-16T05:22:41.354Z,27.03
2019-04-16T05:25:11.241Z,30.77
2019-04-16T05:27:41.631Z,27.10
2019-04-16T05:30:11.850Z,26.73
2019-04-16T05:32:41.732Z,19.47
2019-04-16T05:35:11.545Z,18.53
2019-04-16T05:37:41.370Z,13.87
2019-04-16T05:40:11.178Z,18.67
2019-04-16T05:42:41.065Z,24.67
2019-04-16T05:45:11.435Z,27.40
2019-04-16T05:47:41.474Z,20.17
2019-04-16T05:50:11.651Z,17.47
2019-04-16T05:52:41.484Z,16.60
2019-04-16T05:55:39.170Z,23.63
2019-04-16T05:58:09.082Z,22.27
2019-04-16T06:00:49.408Z,15.83
2019-04-16T06:03:21.815Z,18.53
2019-04-16T06:05:50.758Z,16.10
2019-04-16T06:08:20.579Z,16.40
2019-04-16T06:10:51.246Z,18.53
2019-04-16T06:13:44.518Z,18.13
2019-04-16T06:16:35.538Z,17.40
2019-04-16T06:19:43.865Z,16.60
2019-04-16T06:22:19.492Z,14.10
2019-04-16T06:25:08.480Z,25.80
2019-04-16T06:27:54.035Z,13.80
2019-04-16T06:30:33.856Z,11.37
2019-04-16T06:33:07.885Z,10.80
2019-04-16T06:36:02.494Z,10.20
2019-04-16T06:38:43.471Z,10.80
2019-04-16T06:41:41.479Z,9.53
2019-04-16T06:44:04.376Z,10.03
2019-04-16T06:46:53.214Z,10.77
2019-04-16T06:49:52.169Z,11.23
2019-04-16T06:52:36.288Z,10.23
2019-04-16T06:55:15.891Z,10.10
2019-04-16T06:58:03.438Z,11.50
2019-04-16T07:00:58.339Z,10.30
2019-04-16T07:03:42.006Z,10.90
2019-04-16T07:06:29.532Z,11.90
2019-04-16T07:09:26.305Z,11.87
2019-04-16T07:11:59.431Z,11.23
2019-04-16T07:14:29.332Z,11.07
2019-04-16T07:17:00.171Z,11.20
2019-04-16T07:19:30.762Z,10.87
2019-04-16T07:22:00.657Z,11.07
2019-04-16T07:24:31.630Z,11.07
2019-04-16T07:27:02.100Z,11.17
2019-04-16T07:29:53.201Z,11.20
2019-04-16T07:32:34.262Z,11.27
2019-04-16T07:35:27.016Z,11.37
2019-04-16T07:38:19.370Z,11.03
2019-04-16T07:41:17.405Z,11.73
2019-04-16T07:44:10.016Z,11.03
2019-04-16T07:46:55.300Z,10.63
2019-04-16T07:50:01.280Z,11.53
2019-04-16T07:52:58.789Z,11.57
2019-04-16T07:55:41.432Z,11.23
2019-04-16T07:58:11.315Z,10.83
2019-04-16T08:00:41.603Z,11.53
2019-04-16T08:03:13.683Z,11.13
2019-04-16T08:05:45.512Z,11.73
2019-04-16T08:08:15.385Z,10.17
2019-04-16T08:10:45.301Z,11.33
2019-04-16T08:13:17.502Z,11.00
2019-04-16T08:15:47.541Z,11.27
2019-04-16T08:18:17.524Z,11.73
2019-04-16T08:21:00.312Z,11.33
2019-04-16T08:23:43.993Z,10.80
2019-04-16T08:26:14.120Z,11.07
2019-04-16T08:28:44.910Z,11.00
2019-04-16T08:31:24.938Z,11.30
2019-04-16T08:33:54.850Z,11.43
2019-04-16T08:36:24.765Z,11.30
2019-04-16T08:38:54.711Z,11.07
2019-04-16T08:41:24.655Z,12.27
2019-04-16T08:43:54.605Z,12.20
2019-04-16T08:46:24.618Z,11.33
2019-04-16T08:48:54.716Z,11.30
2019-04-16T08:51:30.761Z,11.13
2019-04-16T08:53:58.794Z,10.60
2019-04-16T08:56:29.670Z,11.77
2019-04-16T08:59:01.756Z,10.83
2019-04-16T09:01:32.949Z,10.23
2019-04-16T09:04:03.247Z,10.50
2019-04-16T09:06:33.154Z,11.43
2019-04-16T09:09:13.860Z,10.50
2019-04-16T09:11:48.379Z,11.07
2019-04-16T09:14:20.261Z,10.70
2019-04-16T09:17:10.449Z,10.80
2019-04-16T09:19:44.009Z,10.93
2019-04-16T09:22:16.767Z,10.87
2019-04-16T09:25:22.304Z,11.33
2019-04-16T09:27:55.944Z,11.27
2019-04-16T09:30:57.131Z,11.80
2019-04-16T09:33:35.117Z,11.67
2019-04-16T09:36:23.977Z,10.80
2019-04-16T09:39:00.962Z,11.50
2019-04-16T09:41:38.298Z,10.93
2019-04-16T09:44:09.530Z,10.83
2019-04-16T09:46:59.389Z,10.77
2019-04-16T09:49:12.845Z,12.37
2019-04-16T09:51:42.851Z,11.23
2019-04-16T09:54:13.664Z,11.07
2019-04-16T09:56:47.010Z,11.07
2019-04-16T09:59:44.711Z,10.90
2019-04-16T10:02:19.279Z,10.87
2019-04-16T10:04:49.378Z,10.37
2019-04-16T10:07:19.395Z,10.93
2019-04-16T10:09:51.354Z,10.93
2019-04-16T10:12:20.928Z,12.77
2019-04-16T10:14:50.861Z,10.00
2019-04-16T10:17:25.584Z,10.80
2019-04-16T10:19:55.407Z,10.43
2019-04-16T10:22:25.315Z,10.40
2019-04-16T10:25:04.030Z,10.80
2019-04-16T10:27:43.508Z,9.90
2019-04-16T10:30:35.822Z,10.37
2019-04-16T10:33:05.965Z,10.67
2019-04-16T10:35:35.918Z,10.63
2019-04-16T10:38:25.933Z,10.67
2019-04-16T10:41:11.393Z,10.77
2019-04-16T10:43:47.879Z,10.77
2019-04-16T10:46:25.008Z,10.50
2019-04-16T10:49:12.285Z,9.70
2019-04-16T10:52:04.235Z,9.90
2019-04-16T10:54:46.838Z,9.77
2019-04-16T10:57:30.902Z,10.30
2019-04-16T11:00:23.032Z,10.27
2019-04-16T11:02:57.787Z,9.50
2019-04-16T11:05:41.883Z,9.77
2019-04-16T11:08:12.786Z,10.07
2019-04-16T11:10:42.661Z,10.07
2019-04-16T11:13:25.503Z,9.97
2019-04-16T11:15:56.662Z,10.13
2019-04-16T11:18:26.600Z,9.90
2019-04-16T11:20:56.492Z,9.67
2019-04-16T11:23:26.551Z,9.30
2019-04-16T11:25:56.378Z,8.97
2019-04-16T11:28:26.362Z,10.40
2019-04-16T11:30:58.470Z,10.10
2019-04-16T11:33:28.496Z,9.07
2019-04-16T11:35:58.433Z,9.23
2019-04-16T11:38:28.354Z,8.63
2019-04-16T11:40:58.267Z,9.87
2019-04-16T11:43:29.245Z,10.20
2019-04-16T11:45:59.228Z,10.13
2019-04-16T11:48:29.126Z,8.97
2019-04-16T11:50:59.136Z,9.77
2019-04-16T11:53:28.999Z,9.93
2019-04-16T11:55:58.971Z,10.10
2019-04-16T11:58:47.375Z,10.27
2019-04-16T12:01:35.521Z,9.77
2019-04-16T12:04:15.345Z,10.47
2019-04-16T12:06:49.769Z,10.67
2019-04-16T12:09:34.987Z,10.70
2019-04-16T12:12:14.963Z,10.77
2019-04-16T12:15:06.987Z,10.23
2019-04-16T12:17:54.284Z,10.67
2019-04-16T12:20:41.624Z,10.67
2019-04-16T12:23:26.418Z,10.87
2019-04-16T12:26:18.378Z,9.37
2019-04-16T12:28:56.879Z,9.30
2019-04-16T12:32:04.139Z,9.50
2019-04-16T12:34:40.059Z,8.93
2019-04-16T12:37:37.551Z,9.17
2019-04-16T12:40:21.152Z,9.53
2019-04-16T12:43:19.346Z,9.27
2019-04-16T12:46:15.956Z,9.90
2019-04-16T12:49:04.831Z,9.27
2019-04-16T12:51:47.745Z,9.37
2019-04-16T12:54:42.762Z,9.63
2019-04-16T12:57:30.222Z,9.50
2019-04-16T13:00:11.025Z,9.77
2019-04-16T13:03:05.738Z,9.40
2019-04-16T13:05:54.760Z,10.67
2019-04-16T13:08:58.715Z,11.80
2019-04-16T13:11:56.479Z,12.30
2019-04-16T13:14:40.523Z,12.87
2019-04-16T13:17:41.447Z,12.67
2019-04-16T13:20:32.582Z,12.97
2019-04-16T13:23:18.062Z,13.57
2019-04-16T13:25:57.198Z,13.00
2019-04-16T13:28:27.383Z,12.37
2019-04-16T13:30:57.240Z,13.10
2019-04-16T13:33:27.111Z,13.67
2019-04-16T13:35:56.923Z,13.70
2019-04-16T13:38:27.850Z,12.33
2019-04-16T13:41:01.170Z,13.10
2019-04-16T13:43:36.806Z,13.53
2019-04-16T13:46:06.480Z,12.87
2019-04-16T13:49:07.369Z,12.27
2019-04-16T13:51:37.803Z,11.87
2019-04-16T13:54:34.340Z,11.70
2019-04-16T13:57:08.007Z,10.73
2019-04-16T14:00:04.714Z,11.67
2019-04-16T14:02:51.245Z,10.47
2019-04-16T14:05:22.763Z,10.97
2019-04-16T14:07:52.620Z,11.07
2019-04-16T14:10:22.662Z,10.87
2019-04-16T14:12:55.323Z,11.73
2019-04-16T14:15:32.360Z,11.13
2019-04-16T14:17:59.699Z,9.83
2019-04-16T14:20:30.391Z,9.53
2019-04-16T14:23:00.617Z,8.80
2019-04-16T14:25:29.762Z,8.27
2019-04-16T14:28:03.190Z,8.87
2019-04-16T14:30:35.206Z,8.70
2019-04-16T14:33:07.129Z,8.77
2019-04-16T14:35:40.376Z,8.03
2019-04-16T14:38:10.938Z,8.67
2019-04-16T14:40:42.334Z,9.27
2019-04-16T14:43:15.961Z,9.10
2019-04-16T14:45:57.982Z,9.93
2019-04-16T14:48:19.929Z,9.70
2019-04-16T14:50:52.638Z,10.73
2019-04-16T14:53:40.042Z,10.80
2019-04-16T14:56:25.178Z,9.23
2019-04-16T14:59:04.037Z,10.47
2019-04-16T15:02:11.131Z,10.83
2019-04-16T15:05:01.449Z,9.63
2019-04-16T15:07:49.035Z,9.63
2019-04-16T15:10:43.274Z,9.70
2019-04-16T15:13:31.817Z,9.07
2019-04-16T15:16:22.278Z,8.67
2019-04-16T15:19:10.557Z,9.17
2019-04-16T15:22:14.586Z,9.87
2019-04-16T15:25:06.672Z,9.80
2019-04-16T15:27:49.709Z,9.57
2019-04-16T15:30:42.663Z,9.43
2019-04-16T15:33:30.070Z,10.53
2019-04-16T15:36:04.066Z,9.63
2019-04-16T15:38:51.639Z,11.03
2019-04-16T15:41:55.377Z,10.73
2019-04-16T15:44:52.694Z,11.50
2019-04-16T15:47:42.909Z,10.50
2019-04-16T15:50:20.057Z,11.60
2019-04-16T15:53:13.519Z,10.67
2019-04-16T15:55:58.005Z,11.50
2019-04-16T15:58:45.007Z,11.53
2019-04-16T16:01:46.054Z,11.83
2019-04-16T16:04:27.951Z,11.73
2019-04-16T16:07:03.352Z,10.77
2019-04-16T16:09:59.035Z,11.33
2019-04-16T16:12:33.871Z,10.97
2019-04-16T16:15:09.136Z,10.93
2019-04-16T16:17:39.123Z,10.83
2019-04-16T16:20:11.252Z,10.60
2019-04-16T16:22:41.424Z,10.33
2019-04-16T16:25:11.446Z,10.57
2019-04-16T16:27:46.728Z,10.03
2019-04-16T16:30:17.336Z,10.80
2019-04-16T16:32:47.415Z,10.63
2019-04-16T16:35:18.098Z,11.50
2019-04-16T16:37:48.080Z,11.13
2019-04-16T16:40:18.975Z,11.97
2019-04-16T16:42:49.006Z,11.87
2019-04-16T16:45:20.959Z,11.30
2019-04-16T16:47:51.024Z,11.23
2019-04-16T16:50:20.992Z,12.10
2019-04-16T16:52:59.883Z,12.13
2019-04-16T16:55:34.296Z,13.40
2019-04-16T16:58:20.783Z,12.70
2019-04-16T17:01:04.286Z,12.07
2019-04-16T17:04:02.395Z,12.70
2019-04-16T17:06:32.442Z,12.67
2019-04-16T17:09:02.550Z,12.97
2019-04-16T17:11:34.008Z,11.63
2019-04-16T17:14:04.022Z,12.07
2019-04-16T17:16:34.034Z,12.47
2019-04-16T17:19:03.935Z,13.50
2019-04-16T17:21:33.871Z,12.30
2019-04-16T17:24:03.828Z,11.97
2019-04-16T17:26:33.868Z,12.87
2019-04-16T17:29:03.795Z,12.20
2019-04-16T17:31:35.992Z,12.57
2019-04-16T17:34:05.595Z,12.97
2019-04-16T17:36:35.646Z,12.70
2019-04-16T17:39:10.409Z,12.07
2019-04-16T17:42:07.329Z,12.00
2019-04-16T17:44:44.334Z,12.63
2019-04-16T17:47:33.009Z,12.30
2019-04-16T17:50:20.088Z,11.83
2019-04-16T17:53:09.037Z,11.83
2019-04-16T17:56:10.012Z,11.50
2019-04-16T17:58:52.100Z,11.63
2019-04-16T18:01:36.141Z,11.37
2019-04-16T18:04:13.757Z,11.80
2019-04-16T18:07:01.228Z,12.37
2019-04-16T18:09:37.984Z,11.37
2019-04-16T18:12:41.770Z,11.53
2019-04-16T18:15:28.339Z,12.63
2019-04-16T18:18:17.633Z,11.87
2019-04-16T18:21:09.369Z,12.67
2019-04-16T18:23:58.455Z,12.10
2019-04-16T18:26:46.083Z,11.50
2019-04-16T18:29:20.347Z,11.10
2019-04-16T18:32:21.387Z,8.83
2019-04-16T18:35:16.558Z,8.10
2019-04-16T18:38:22.162Z,6.53
2019-04-16T18:41:27.492Z,5.97
2019-04-16T18:44:34.283Z,6.27
2019-04-16T18:47:26.270Z,5.33
2019-04-16T18:49:58.627Z,5.17
2019-04-16T18:52:31.827Z,5.10
2019-04-16T18:55:01.786Z,5.83
2019-04-16T18:57:31.778Z,4.67
2019-04-16T19:00:02.005Z,5.40
2019-04-16T19:02:32.077Z,4.30
2019-04-16T19:05:02.033Z,4.27
2019-04-16T19:07:33.316Z,4.40
2019-04-16T19:10:03.704Z,4.67
2019-04-16T19:12:33.713Z,4.93
2019-04-16T19:15:04.708Z,4.60
2019-04-16T19:17:34.615Z,3.73
2019-04-16T19:20:05.297Z,3.63
2019-04-16T19:22:35.282Z,4.20
2019-04-16T19:25:08.915Z,4.20
2019-04-16T19:27:37.140Z,3.77
2019-04-16T19:30:07.813Z,3.70
2019-04-16T19:32:38.888Z,4.17
2019-04-16T19:35:11.430Z,4.17
2019-04-16T19:37:41.397Z,3.50
2019-04-16T19:40:11.365Z,4.50
2019-04-16T19:42:41.202Z,3.40
2019-04-16T19:45:12.120Z,3.47
2019-04-16T19:47:43.644Z,3.30
2019-04-16T19:50:13.893Z,3.50
2019-04-16T19:52:45.624Z,4.20
2019-04-16T19:55:15.645Z,3.97
2019-04-16T19:57:48.001Z,3.30
2019-04-16T20:00:21.993Z,3.37
2019-04-16T20:02:49.521Z,3.60
2019-04-16T20:05:19.856Z,3.00
2019-04-16T20:07:49.806Z,3.37
2019-04-16T20:10:19.734Z,3.80
2019-04-16T20:12:49.625Z,3.63
2019-04-16T20:15:19.607Z,3.50
2019-04-16T20:17:49.505Z,3.33
2019-04-16T20:20:19.406Z,3.50
2019-04-16T20:22:49.308Z,4.40
2019-04-16T20:25:20.261Z,3.37
2019-04-16T20:27:50.229Z,3.53
2019-04-16T20:30:23.058Z,3.40
2019-04-16T20:32:51.732Z,3.90
2019-04-16T20:35:21.728Z,3.47
2019-04-16T20:37:54.341Z,3.00
2019-04-16T20:40:23.341Z,3.00
2019-04-16T20:42:53.622Z,3.43
2019-04-16T20:45:23.608Z,3.20
2019-04-16T20:47:55.094Z,3.00
2019-04-16T20:50:25.069Z,3.20
2019-04-16T20:52:55.030Z,2.80
2019-04-16T20:55:24.886Z,2.77
2019-04-16T20:57:58.570Z,2.73
2019-04-16T21:00:31.388Z,2.97
2019-04-16T21:03:04.708Z,3.37
2019-04-16T21:05:36.567Z,2.60
2019-04-16T21:08:06.650Z,2.63
2019-04-16T21:10:39.650Z,3.10
2019-04-16T21:13:09.519Z,3.07
2019-04-16T21:15:39.468Z,3.37
2019-04-16T21:18:11.863Z,3.30
2019-04-16T21:20:40.946Z,2.90
2019-04-16T21:23:10.825Z,3.40
2019-04-16T21:25:42.865Z,3.20
2019-04-16T21:28:31.863Z,2.93
2019-04-16T21:31:06.377Z,3.20
2019-04-16T21:33:53.130Z,3.23
2019-04-16T21:36:48.047Z,3.10
2019-04-16T21:39:22.469Z,3.00
2019-04-16T21:41:52.279Z,2.80
2019-04-16T21:44:22.212Z,2.77
2019-04-16T21:46:52.926Z,3.00
2019-04-16T21:49:37.361Z,3.07
2019-04-16T21:52:09.736Z,3.20
2019-04-16T21:54:39.899Z,3.30
2019-04-16T21:57:13.299Z,3.07
2019-04-16T21:59:42.366Z,3.10
2019-04-16T22:02:24.848Z,3.20
2019-04-16T22:04:56.216Z,2.90
2019-04-16T22:07:26.395Z,3.10
2019-04-16T22:09:56.312Z,3.30
2019-04-16T22:12:26.225Z,3.07
2019-04-16T22:14:56.113Z,2.83
2019-04-16T22:17:27.690Z,2.83
2019-04-16T22:20:03.403Z,3.20
2019-04-16T22:22:31.668Z,3.60
2019-04-16T22:25:01.553Z,3.13
2019-04-16T22:27:31.460Z,3.00
2019-04-16T22:30:01.343Z,2.80
2019-04-16T22:32:32.274Z,2.70
2019-04-16T22:35:02.343Z,2.80
2019-04-16T22:37:32.193Z,3.23
2019-04-16T22:40:24.219Z,2.90
2019-04-16T22:43:11.478Z,3.10
2019-04-16T22:45:46.821Z,3.20
2019-04-16T22:48:16.698Z,2.90
2019-04-16T22:50:46.660Z,2.87
2019-04-16T22:53:17.241Z,3.03
2019-04-16T22:55:47.926Z,3.33
2019-04-16T22:58:25.970Z,2.87
2019-04-16T23:01:00.110Z,3.37
2019-04-16T23:03:30.152Z,3.20
2019-04-16T23:06:01.000Z,2.90
2019-04-16T23:08:32.041Z,2.70
2019-04-16T23:11:01.899Z,2.70
2019-04-16T23:13:34.219Z,2.77
2019-04-16T23:16:04.174Z,2.70
2019-04-16T23:18:34.032Z,2.93
2019-04-16T23:21:08.838Z,3.00
2019-04-16T23:23:37.872Z,2.53
2019-04-16T23:26:07.792Z,2.80
2019-04-16T23:28:42.467Z,3.10
2019-04-16T23:31:12.108Z,2.70
2019-04-16T23:33:46.719Z,3.07
2019-04-16T23:36:16.793Z,2.93
2019-04-16T23:38:46.750Z,2.90
2019-04-16T23:41:16.934Z,3.20
2019-04-16T23:43:55.790Z,3.00
2019-04-16T23:46:43.078Z,3.23
2019-04-16T23:49:44.056Z,2.97
2019-04-16T23:52:17.396Z,3.00
2019-04-16T23:54:53.710Z,3.10
2019-04-16T23:57:35.673Z,3.10
